Time;durP1;ratioP1;P1;durP2;ratioP2;P2;SDS_P1;SDS_P2;PMS_P1;PMS_P2;Temp;Humidity;BMP_temperature;BMP_pressure;BME280_temperature;BME280_humidity;BME280_pressure;Samples;Min_cycle;Max_cycle;Signal;HPM_P1;HPM_P2
2023/12/17 00:00:42;;;;;;;4.50;3.50;;;;;;;3.59;97.53;100061.13;106354;1278;73947;-91
2023/12/17 00:03:10;;;;;;;4.70;3.50;;;;;;;3.58;97.38;100054.25;104993;1278;74300;-90
2023/12/17 00:05:49;;;;;;;4.10;3.80;;;;;;;3.56;97.17;100065.96;104577;1278;72601;-90
2023/12/17 00:08:20;;;;;;;5.20;3.90;;;;;;;3.53;97.14;100056.27;104555;1279;61205;-91
2023/12/17 00:10:49;;;;;;;3.70;2.80;;;;;;;3.53;96.77;100048.13;104073;1278;61173;-91
2023/12/17 00:13:17;;;;;;;4.30;3.00;;;;;;;3.53;96.43;100038.75;103794;1288;74170;-93
2023/12/17 00:15:47;;;;;;;4.40;3.10;;;;;;;3.51;95.88;100043.02;104235;1282;73455;-91
2023/12/17 00:18:15;;;;;;;4.00;3.10;;;;;;;3.49;95.70;100050.12;104127;1280;73426;-91
2023/12/17 00:20:43;;;;;;;4.60;3.10;;;;;;;3.48;95.52;100054.20;104345;1282;61465;-89
2023/12/17 00:23:11;;;;;;;3.80;3.10;;;;;;;3.49;95.32;100056.15;104269;1280;61214;-91
2023/12/17 00:25:39;;;;;;;3.80;3.10;;;;;;;3.48;95.55;100050.87;106610;1279;73798;-91
2023/12/17 00:28:07;;;;;;;3.40;3.10;;;;;;;3.47;95.21;100048.75;107206;1278;73140;-91
2023/12/17 00:30:35;;;;;;;3.80;3.10;;;;;;;3.45;94.75;100046.83;106954;1278;72735;-90
2023/12/17 00:33:03;;;;;;;3.40;2.70;;;;;;;3.45;94.06;100049.48;106488;1280;60461;-91
2023/12/17 00:35:31;;;;;;;3.70;3.40;;;;;;;3.46;93.98;100043.44;104515;1280;61284;-91
2023/12/17 00:37:58;;;;;;;4.00;3.10;;;;;;;3.47;93.48;100037.59;104274;1280;76544;-90
2023/12/17 00:40:26;;;;;;;3.20;2.90;;;;;;;3.48;93.03;100037.38;104573;1279;74800;-92
2023/12/17 00:42:53;;;;;;;3.10;2.60;;;;;;;3.47;92.87;100020.94;107170;1279;72410;-90
2023/12/17 00:45:20;;;;;;;3.30;2.60;;;;;;;3.47;92.08;100008.55;107358;1278;61198;-89
2023/12/17 00:47:48;;;;;;;2.80;2.60;;;;;;;3.48;91.55;100000.20;107343;1277;60450;-90
2023/12/17 00:50:16;;;;;;;5.50;2.70;;;;;;;3.51;91.04;100003.17;107306;1277;73281;-89
2023/12/17 00:52:44;;;;;;;3.70;2.80;;;;;;;3.51;91.08;99988.64;105687;1282;73276;-90
2023/12/17 00:55:11;;;;;;;3.70;2.60;;;;;;;3.52;90.82;99985.61;104177;1280;72708;-90
2023/12/17 00:57:39;;;;;;;4.20;3.30;;;;;;;3.53;90.44;99981.71;104203;1279;62673;-92
2023/12/17 01:00:07;;;;;;;3.40;2.80;;;;;;;3.51;90.44;99977.67;104317;1279;61144;-94
2023/12/17 01:02:35;;;;;;;2.90;2.60;;;;;;;3.51;90.43;99977.48;104198;1280;74062;-92
2023/12/17 01:05:03;;;;;;;4.30;2.80;;;;;;;3.50;90.50;99970.77;103811;1278;73505;-91
2023/12/17 01:07:31;;;;;;;3.70;2.80;;;;;;;3.48;90.07;99971.86;104262;1279;71497;-90
2023/12/17 01:09:59;;;;;;;3.30;2.70;;;;;;;3.46;89.79;99972.07;103877;1279;61279;-89
2023/12/17 01:12:26;;;;;;;3.30;2.30;;;;;;;3.43;89.35;99973.88;103652;1282;61264;-89
2023/12/17 01:14:54;;;;;;;3.90;2.40;;;;;;;3.41;89.50;99973.40;103756;1280;72941;-93
2023/12/17 01:17:22;;;;;;;3.00;2.50;;;;;;;3.40;89.30;99972.16;103874;1285;74778;-92
2023/12/17 01:19:49;;;;;;;2.40;1.80;;;;;;;3.40;89.49;99976.94;103908;1282;72776;-91
2023/12/17 01:22:18;;;;;;;2.90;2.50;;;;;;;3.38;89.57;99981.02;103826;1280;61148;-90
2023/12/17 01:24:49;;;;;;;2.60;2.10;;;;;;;3.36;89.07;99975.77;103782;1282;61228;-90
2023/12/17 01:27:16;;;;;;;2.70;2.00;;;;;;;3.34;89.08;99967.66;103859;1280;73607;-90
2023/12/17 01:29:44;;;;;;;3.90;2.50;;;;;;;3.32;89.06;99976.36;103942;1285;75378;-90
2023/12/17 01:32:12;;;;;;;3.50;2.20;;;;;;;3.29;88.74;99968.09;103906;1287;73113;-90
2023/12/17 01:34:39;;;;;;;2.20;1.70;;;;;;;3.29;87.94;99960.65;104024;1278;61052;-92
2023/12/17 01:37:07;;;;;;;2.20;1.70;;;;;;;3.27;87.62;99960.33;103745;1282;61144;-92
2023/12/17 01:39:37;;;;;;;2.90;2.20;;;;;;;3.24;87.16;99961.77;103763;1285;74172;-93
2023/12/17 01:42:04;;;;;;;2.20;1.80;;;;;;;3.22;86.84;99961.79;103789;1285;75269;-91
2023/12/17 01:44:33;;;;;;;1.60;1.40;;;;;;;3.19;86.21;99953.52;103807;1280;71099;-91
2023/12/17 01:47:03;;;;;;;2.90;1.60;;;;;;;3.16;86.01;99935.34;103842;1284;61268;-90
2023/12/17 01:49:31;;;;;;;2.50;2.00;;;;;;;3.13;85.43;99930.41;103884;1284;61288;-89
2023/12/17 01:51:58;;;;;;;2.50;1.90;;;;;;;3.11;85.40;99920.02;104927;1278;73859;-90
2023/12/17 01:54:26;;;;;;;2.50;2.10;;;;;;;3.11;85.40;99912.40;104479;1280;74457;-90
2023/12/17 01:56:54;;;;;;;2.70;1.90;;;;;;;3.11;84.92;99918.77;103926;1284;73817;-91
2023/12/17 01:59:21;;;;;;;2.30;2.10;;;;;;;3.10;84.31;99923.03;103932;1280;61263;-91
2023/12/17 02:01:48;;;;;;;2.50;2.00;;;;;;;3.11;84.51;99917.90;103660;1279;61157;-93
2023/12/17 02:04:16;;;;;;;3.40;2.80;;;;;;;3.11;84.03;99911.88;104083;1280;74524;-91
2023/12/17 02:06:43;;;;;;;4.00;2.30;;;;;;;3.11;84.16;99900.91;104038;1280;75064;-91
2023/12/17 02:09:11;;;;;;;2.90;1.80;;;;;;;3.11;83.87;99897.36;104228;1280;73684;-94
2023/12/17 02:11:38;;;;;;;3.00;2.00;;;;;;;3.11;83.08;99878.07;104094;1278;61103;-91
2023/12/17 02:14:05;;;;;;;2.30;2.00;;;;;;;3.11;83.27;99858.07;103998;1283;61157;-90
2023/12/17 02:16:35;;;;;;;2.80;1.70;;;;;;;3.11;83.12;99842.66;104074;1278;73963;-90
2023/12/17 02:19:02;;;;;;;2.40;1.70;;;;;;;3.12;82.31;99853.08;104148;1277;74886;-90
2023/12/17 02:21:30;;;;;;;2.60;1.60;;;;;;;3.12;82.54;99866.54;103926;1283;71373;-90
2023/12/17 02:23:58;;;;;;;2.70;1.50;;;;;;;3.13;82.27;99861.73;103937;1280;61443;-93
2023/12/17 02:26:26;;;;;;;2.40;1.60;;;;;;;3.14;81.86;99877.66;104058;1277;61125;-92
2023/12/17 02:28:53;;;;;;;4.10;1.90;;;;;;;3.14;81.61;99892.18;104047;1279;73062;-91
2023/12/17 02:31:21;;;;;;;2.50;2.00;;;;;;;3.15;81.08;99912.14;104114;1280;75426;-92
2023/12/17 02:33:49;;;;;;;2.10;1.50;;;;;;;3.16;80.87;99919.92;104152;1282;74106;-92
2023/12/17 02:36:19;;;;;;;2.50;1.60;;;;;;;3.19;80.86;99909.81;104125;1280;61214;-93
2023/12/17 02:38:47;;;;;;;2.30;1.90;;;;;;;3.20;80.74;99918.45;104236;1276;61141;-93
2023/12/17 02:41:53;;;;;;;2.30;1.90;;;;;;;3.22;80.01;99924.80;104005;1283;72865;-91
2023/12/17 02:44:24;;;;;;;2.90;1.90;;;;;;;3.23;80.06;99931.34;103632;1280;74150;-92
2023/12/17 02:46:53;;;;;;;2.20;1.50;;;;;;;3.24;79.46;99923.17;103958;1285;72672;-91
2023/12/17 02:49:23;;;;;;;2.70;1.70;;;;;;;3.26;78.69;99915.20;103670;1280;61166;-91
2023/12/17 02:51:51;;;;;;;1.80;1.50;;;;;;;3.29;78.97;99908.24;103572;1278;61280;-91
2023/12/17 02:54:19;;;;;;;1.80;1.60;;;;;;;3.31;78.81;99897.05;103821;1280;75909;-92
2023/12/17 02:56:47;;;;;;;1.90;1.70;;;;;;;3.33;78.40;99897.20;103925;1280;72878;-91
2023/12/17 02:59:14;;;;;;;1.50;1.40;;;;;;;3.35;77.99;99905.66;104055;1279;72643;-89
2023/12/17 03:01:45;;;;;;;2.20;1.70;;;;;;;3.37;77.52;99895.53;104035;1279;61170;-92
2023/12/17 03:04:16;;;;;;;4.80;1.60;;;;;;;3.40;77.60;99885.56;103975;1285;61150;-91
2023/12/17 03:06:44;;;;;;;2.80;1.90;;;;;;;3.42;77.61;99884.11;104157;1280;73894;-90
2023/12/17 03:09:12;;;;;;;2.40;1.40;;;;;;;3.45;77.63;99872.21;104098;1280;75430;-91
2023/12/17 03:11:39;;;;;;;4.20;1.80;;;;;;;3.46;77.47;99873.61;105789;1279;72486;-91
2023/12/17 03:14:09;;;;;;;1.70;1.60;;;;;;;3.48;76.91;99884.02;107415;1280;59492;-90
2023/12/17 03:16:37;;;;;;;1.60;1.20;;;;;;;3.51;76.64;99867.67;107339;1279;58900;-90
2023/12/17 03:19:04;;;;;;;2.00;1.50;;;;;;;3.53;76.72;99869.59;106904;1279;72809;-92
2023/12/17 03:21:33;;;;;;;1.90;1.40;;;;;;;3.56;76.61;99877.87;106356;1279;73329;-90
2023/12/17 03:24:05;;;;;;;3.10;1.40;;;;;;;3.59;76.64;99876.05;106819;1279;73744;-91
2023/12/17 03:26:36;;;;;;;1.40;1.20;;;;;;;3.61;76.31;99871.58;107229;1279;58605;-91
2023/12/17 03:29:04;;;;;;;1.90;1.20;;;;;;;3.63;75.96;99880.57;107008;1279;60165;-92
2023/12/17 03:31:32;;;;;;;1.70;1.50;;;;;;;3.66;75.87;99865.48;107442;1283;73620;-92
2023/12/17 03:34:01;;;;;;;2.70;1.30;;;;;;;3.68;75.74;99849.13;107242;1278;74442;-89
2023/12/17 03:36:39;;;;;;;2.10;1.70;;;;;;;3.69;75.75;99838.49;107234;1279;72238;-92
2023/12/17 03:39:07;;;;;;;1.50;1.20;;;;;;;3.70;75.65;99826.80;107096;1279;58642;-91
2023/12/17 03:41:35;;;;;;;2.30;1.90;;;;;;;3.70;75.33;99823.78;107138;1279;59311;-91
2023/12/17 03:44:03;;;;;;;2.60;1.70;;;;;;;3.70;75.20;99819.16;107298;1280;72836;-90
2023/12/17 03:46:30;;;;;;;2.00;1.80;;;;;;;3.71;75.41;99815.44;107195;1279;72293;-90
2023/12/17 03:48:58;;;;;;;1.80;1.60;;;;;;;3.71;75.36;99812.42;104277;1280;71796;-91
2023/12/17 03:51:25;;;;;;;1.70;1.40;;;;;;;3.71;75.02;99802.69;104143;1284;61223;-91
2023/12/17 03:53:55;;;;;;;3.00;1.90;;;;;;;3.72;74.81;99799.81;104135;1285;61309;-91
2023/12/17 03:56:25;;;;;;;2.00;1.70;;;;;;;3.72;74.57;99803.71;104566;1279;74016;-91
2023/12/17 03:58:58;;;;;;;2.10;1.50;;;;;;;3.72;75.31;99802.83;104583;1286;74485;-90
2023/12/17 04:01:29;;;;;;;4.20;1.50;;;;;;;3.72;75.01;99810.27;104233;1282;74498;-93
2023/12/17 04:03:57;;;;;;;2.90;1.60;;;;;;;3.71;74.83;99796.30;103810;1283;61113;-91
2023/12/17 04:06:27;;;;;;;2.80;1.80;;;;;;;3.71;74.96;99792.41;103962;1279;62124;-93
2023/12/17 04:08:54;;;;;;;2.00;1.60;;;;;;;3.70;74.85;99795.08;103947;1280;74161;-92
2023/12/17 04:11:22;;;;;;;1.60;1.50;;;;;;;3.70;75.21;99799.86;103924;1280;74383;-92
2023/12/17 04:13:50;;;;;;;2.50;1.40;;;;;;;3.69;75.39;99803.23;103945;1282;73134;-92
2023/12/17 04:16:17;;;;;;;3.00;2.00;;;;;;;3.69;75.39;99806.07;104190;1279;61233;-90
2023/12/17 04:18:45;;;;;;;1.70;1.50;;;;;;;3.69;75.74;99805.19;103938;1286;61190;-90
2023/12/17 04:21:13;;;;;;;2.20;1.60;;;;;;;3.68;76.24;99782.70;104109;1279;72752;-91
2023/12/17 04:26:02;;;;;;;1.90;1.60;;;;;;;3.69;75.93;99782.16;102862;1293;601214;-91
2023/12/17 04:28:30;;;;;;;2.90;2.10;;;;;;;3.67;75.86;99786.81;105598;1266;61168;-92
2023/12/17 04:30:58;;;;;;;2.40;1.50;;;;;;;3.69;76.05;99771.35;105641;1265;61136;-91
2023/12/17 04:33:25;;;;;;;2.80;2.20;;;;;;;3.72;76.18;99763.32;105453;1268;72008;-92
2023/12/17 04:35:54;;;;;;;2.50;1.90;;;;;;;3.74;76.08;99755.31;105192;1267;73757;-91
2023/12/17 04:38:23;;;;;;;2.70;2.30;;;;;;;3.77;76.14;99748.17;105346;1267;71946;-91
2023/12/17 04:40:51;;;;;;;2.80;1.90;;;;;;;3.79;76.34;99752.91;105835;1260;61124;-91
2023/12/17 04:43:20;;;;;;;2.50;1.60;;;;;;;3.80;76.76;99761.21;106177;1255;61176;-90
2023/12/17 04:45:48;;;;;;;2.00;1.60;;;;;;;3.81;76.75;99768.99;105962;1260;72069;-93
2023/12/17 04:48:15;;;;;;;2.20;1.90;;;;;;;3.83;76.79;99774.27;105988;1263;75443;-92
2023/12/17 04:50:43;;;;;;;1.80;1.60;;;;;;;3.85;76.82;99778.84;105972;1255;73580;-91
2023/12/17 04:53:11;;;;;;;2.70;1.60;;;;;;;3.86;77.09;99779.16;106541;1257;61102;-90
2023/12/17 04:55:41;;;;;;;2.40;2.00;;;;;;;3.87;77.19;99772.42;106102;1260;61071;-91
2023/12/17 04:58:08;;;;;;;2.00;1.60;;;;;;;3.88;77.27;99776.64;106337;1254;75208;-91
2023/12/17 05:00:36;;;;;;;2.50;1.80;;;;;;;3.90;77.58;99762.97;106191;1260;73253;-91
2023/12/17 05:03:05;;;;;;;2.40;2.20;;;;;;;3.91;77.14;99756.56;106450;1254;71446;-91
2023/12/17 05:05:37;;;;;;;2.70;2.20;;;;;;;3.93;77.27;99747.66;106150;1261;61150;-91
2023/12/17 05:08:04;;;;;;;2.40;2.10;;;;;;;3.95;77.79;99753.63;106382;1254;60945;-92
2023/12/17 05:10:32;;;;;;;3.60;2.60;;;;;;;3.97;77.75;99762.11;106528;1254;73648;-91
2023/12/17 05:12:59;;;;;;;3.20;1.90;;;;;;;3.97;77.89;99758.92;105979;1254;74357;-90
2023/12/17 05:15:31;;;;;;;3.50;2.30;;;;;;;3.98;78.13;99753.76;106080;1257;72510;-92
2023/12/17 05:17:59;;;;;;;2.70;2.20;;;;;;;4.00;78.07;99752.14;105963;1254;61161;-92
2023/12/17 05:20:28;;;;;;;3.30;2.60;;;;;;;3.99;78.21;99749.84;109131;1253;60676;-91
2023/12/17 05:26:15;;;;;;;2.50;1.80;;;;;;;4.01;78.26;99758.67;103717;1285;600433;-93
2023/12/17 05:28:43;;;;;;;2.40;2.10;;;;;;;3.99;78.10;99757.29;105326;1267;61169;-92
2023/12/17 05:31:13;;;;;;;3.00;2.20;;;;;;;4.01;78.31;99747.16;105149;1267;61191;-92
2023/12/17 05:33:41;;;;;;;3.70;2.10;;;;;;;4.02;78.50;99757.41;105110;1268;72097;-93
2023/12/17 05:36:09;;;;;;;2.40;2.10;;;;;;;4.02;78.42;99760.42;105410;1262;74419;-92
2023/12/17 05:38:36;;;;;;;2.40;2.20;;;;;;;4.02;78.46;99765.92;105519;1260;323471;-90
2023/12/17 05:41:05;;;;;;;3.90;2.30;;;;;;;4.03;78.59;99759.86;105856;1265;61126;-90
2023/12/17 05:43:33;;;;;;;3.50;2.40;;;;;;;4.04;78.72;99762.69;107119;1257;61120;-89
2023/12/17 05:46:00;;;;;;;3.50;2.30;;;;;;;4.04;78.86;99766.23;107238;1258;73265;-90
2023/12/17 05:48:34;;;;;;;2.40;1.90;;;;;;;4.05;79.07;99763.20;107236;1259;74012;-89
2023/12/17 05:51:02;;;;;;;3.80;2.40;;;;;;;4.05;79.14;99771.37;106467;1258;71413;-92
2023/12/17 05:53:30;;;;;;;2.20;1.90;;;;;;;4.05;79.09;99775.44;106246;1264;61198;-92
2023/12/17 05:56:08;;;;;;;3.30;1.80;;;;;;;4.05;79.19;99768.52;106426;1260;61121;-90
2023/12/17 05:58:35;;;;;;;2.40;2.00;;;;;;;4.06;79.22;99772.74;108125;1256;73437;-92
2023/12/17 06:01:03;;;;;;;2.90;2.40;;;;;;;4.08;79.16;99773.58;109483;1253;74079;-93
2023/12/17 06:03:30;;;;;;;2.60;2.10;;;;;;;4.12;79.24;99775.09;109410;1253;71594;-90
2023/12/17 06:05:58;;;;;;;4.30;2.40;;;;;;;4.15;79.15;99765.81;109100;1253;59253;-90
2023/12/17 06:08:26;;;;;;;2.90;2.40;;;;;;;4.18;79.22;99764.86;109102;1253;59339;-89
2023/12/17 06:10:54;;;;;;;2.70;2.20;;;;;;;4.21;79.34;99764.80;109316;1253;71869;-92
2023/12/17 06:13:22;;;;;;;3.50;3.00;;;;;;;4.24;79.22;99759.95;109343;1253;75756;-91
2023/12/17 06:15:52;;;;;;;3.60;2.70;;;;;;;4.27;79.58;99756.35;107941;1260;71546;-92
2023/12/17 06:18:20;;;;;;;3.70;2.60;;;;;;;4.29;79.52;99766.05;106978;1253;61107;-91
2023/12/17 06:20:47;;;;;;;3.80;2.90;;;;;;;4.29;79.36;99768.69;107418;1253;61047;-90
2023/12/17 06:23:17;;;;;;;3.30;2.00;;;;;;;4.30;79.15;99774.19;107388;1252;72278;-90
2023/12/17 06:25:45;;;;;;;3.20;2.70;;;;;;;4.30;79.12;99774.02;107629;1253;74179;-90
2023/12/17 06:28:13;;;;;;;3.00;2.70;;;;;;;4.30;79.17;99772.77;106490;1253;71202;-91
2023/12/17 06:30:43;;;;;;;4.90;3.60;;;;;;;4.30;78.96;99778.45;106458;1258;61136;-92
2023/12/17 06:33:11;;;;;;;3.60;2.90;;;;;;;4.29;79.22;99772.25;106341;1253;61606;-93
2023/12/17 06:35:38;;;;;;;3.60;2.80;;;;;;;4.29;79.41;99763.92;106282;1256;72019;-92
2023/12/17 06:38:06;;;;;;;4.80;3.30;;;;;;;4.29;79.71;99765.70;106573;1255;74929;-92
2023/12/17 06:40:33;;;;;;;5.50;3.20;;;;;;;4.27;79.90;99766.09;106454;1254;72638;-92
2023/12/17 06:43:01;;;;;;;5.60;2.40;;;;;;;4.28;80.17;99771.23;106394;1256;61159;-92
2023/12/17 06:45:28;;;;;;;4.20;3.50;;;;;;;4.26;80.33;99767.70;106400;1254;61122;-86
2023/12/17 06:47:56;;;;;;;3.90;2.80;;;;;;;4.25;80.48;99765.08;105521;1256;73982;-86
2023/12/17 06:50:23;;;;;;;4.40;3.60;;;;;;;4.25;80.70;99768.08;105603;1256;73177;-87
2023/12/17 06:52:50;;;;;;;4.80;3.30;;;;;;;4.25;80.81;99769.14;106244;1255;70521;-91
2023/12/17 06:55:18;;;;;;;3.40;2.90;;;;;;;4.25;80.86;99774.63;106563;1260;61197;-90
2023/12/17 06:57:48;;;;;;;3.90;3.10;;;;;;;4.26;81.12;99779.94;106177;1256;61166;-91
2023/12/17 07:00:16;;;;;;;6.30;2.90;;;;;;;4.26;81.19;99777.45;106147;1256;72996;-91
2023/12/17 07:02:44;;;;;;;5.40;3.50;;;;;;;4.27;81.50;99765.21;106287;1258;72855;-91
2023/12/17 07:05:12;;;;;;;5.50;4.10;;;;;;;4.27;81.66;99768.05;106234;1260;74548;-91
2023/12/17 07:11:05;;;;;;;5.00;3.70;;;;;;;4.31;81.88;99766.52;102762;1299;600498;-92
2023/12/17 07:13:32;;;;;;;4.10;3.20;;;;;;;4.29;81.72;99758.79;105310;1267;61065;-92
2023/12/17 07:15:59;;;;;;;4.90;3.60;;;;;;;4.29;81.89;99761.42;105126;1269;61171;-91
2023/12/17 07:18:27;;;;;;;4.80;3.20;;;;;;;4.30;81.98;99761.95;105068;1271;70873;-90
2023/12/17 07:20:55;;;;;;;4.40;3.70;;;;;;;4.30;82.19;99761.59;105327;1267;74085;-91
2023/12/17 07:23:25;;;;;;;3.70;2.80;;;;;;;4.31;82.32;99771.32;105225;1267;72596;-92
2023/12/17 07:25:52;;;;;;;4.40;2.80;;;;;;;4.33;82.29;99763.48;105210;1269;61770;-90
2023/12/17 07:28:20;;;;;;;4.90;3.40;;;;;;;4.35;82.57;99773.00;105302;1267;61014;-89
2023/12/17 07:30:47;;;;;;;4.40;3.30;;;;;;;4.36;82.47;99770.66;106162;1257;71148;-92
2023/12/17 07:33:15;;;;;;;3.90;3.40;;;;;;;4.38;82.77;99766.75;105786;1257;73057;-91
2023/12/17 07:35:43;;;;;;;3.70;3.30;;;;;;;4.38;82.92;99769.40;105770;1257;72674;-93
2023/12/17 07:38:11;;;;;;;5.90;3.90;;;;;;;4.40;83.19;99761.55;105823;1257;61157;-91
2023/12/17 07:40:39;;;;;;;5.90;4.20;;;;;;;4.41;83.34;99766.50;105915;1260;61748;-91
2023/12/17 07:43:07;;;;;;;5.50;4.10;;;;;;;4.42;83.64;99774.62;105879;1256;73035;-91
2023/12/17 07:45:34;;;;;;;4.50;3.30;;;;;;;4.45;83.72;99780.42;105971;1257;75774;-91
2023/12/17 07:48:01;;;;;;;3.60;3.20;;;;;;;4.48;84.07;99792.23;105613;1256;72440;-91
2023/12/17 07:50:29;;;;;;;5.30;4.00;;;;;;;4.53;84.10;99792.48;105655;1257;61100;-90
2023/12/17 07:52:57;;;;;;;4.60;4.20;;;;;;;4.58;84.21;99795.20;105978;1264;61230;-92
2023/12/17 07:55:25;;;;;;;6.50;4.10;;;;;;;4.63;84.15;99797.23;105753;1257;74201;-89
2023/12/17 07:57:52;;;;;;;3.90;3.60;;;;;;;4.67;84.11;99813.09;105927;1257;73015;-90
2023/12/17 08:00:20;;;;;;;4.20;3.60;;;;;;;4.72;83.89;99819.39;106002;1257;72810;-91
2023/12/17 08:02:48;;;;;;;6.00;3.80;;;;;;;4.77;83.79;99821.75;106166;1257;61180;-90
2023/12/17 08:05:17;;;;;;;7.20;3.90;;;;;;;4.82;83.60;99829.42;106010;1257;61116;-89
2023/12/17 08:07:44;;;;;;;5.10;3.90;;;;;;;4.89;83.27;99832.99;105900;1256;71817;-91
2023/12/17 08:10:12;;;;;;;5.10;4.10;;;;;;;4.95;83.08;99829.15;106309;1256;74593;-93
2023/12/17 08:12:39;;;;;;;5.00;4.00;;;;;;;4.99;83.05;99827.27;105764;1263;71832;-92
2023/12/17 08:15:07;;;;;;;5.20;3.50;;;;;;;5.03;83.01;99833.02;105990;1261;61086;-90
2023/12/17 08:17:34;;;;;;;5.30;4.10;;;;;;;5.05;83.12;99834.38;105801;1257;61154;-89
2023/12/17 08:20:03;;;;;;;5.60;3.80;;;;;;;5.10;83.11;99827.89;106134;1259;72285;-90
2023/12/17 08:22:32;;;;;;;5.80;4.30;;;;;;;5.13;83.00;99828.35;106007;1257;74395;-88
2023/12/17 08:24:59;;;;;;;5.20;4.20;;;;;;;5.17;82.41;99828.63;106031;1257;73070;-91
2023/12/17 08:27:26;;;;;;;5.80;4.50;;;;;;;5.18;81.98;99818.30;106101;1258;61197;-90
2023/12/17 08:29:54;;;;;;;5.40;4.90;;;;;;;5.19;82.02;99815.80;105718;1263;61557;-90
2023/12/17 08:32:23;;;;;;;6.80;5.20;;;;;;;5.19;82.07;99822.17;105565;1257;71451;-91
2023/12/17 08:34:50;;;;;;;4.90;4.10;;;;;;;5.21;82.05;99823.35;105898;1259;74712;-90
2023/12/17 08:37:18;;;;;;;5.00;4.40;;;;;;;5.23;82.11;99830.95;105806;1262;73495;-90
2023/12/17 08:39:45;;;;;;;6.50;4.50;;;;;;;5.24;82.45;99832.36;105956;1262;61156;-89
2023/12/17 08:42:12;;;;;;;4.70;4.00;;;;;;;5.25;82.67;99837.13;105953;1259;61192;-92
2023/12/17 08:44:40;;;;;;;4.40;3.90;;;;;;;5.27;82.86;99847.01;106988;1257;73131;-90
2023/12/17 08:47:07;;;;;;;5.80;5.20;;;;;;;5.31;82.86;99856.16;109160;1257;73749;-89
2023/12/17 08:49:34;;;;;;;4.90;4.40;;;;;;;5.33;82.99;99876.52;109169;1257;71380;-89
2023/12/17 08:52:02;;;;;;;6.90;4.50;;;;;;;5.39;82.86;99872.48;108836;1257;60738;-90
2023/12/17 08:54:29;;;;;;;5.90;4.20;;;;;;;5.46;82.42;99874.63;107067;1257;61145;-86
2023/12/17 08:56:56;;;;;;;6.10;4.60;;;;;;;5.53;82.60;99861.13;107002;1257;72864;-86
2023/12/17 08:59:23;;;;;;;12.20;5.10;;;;;;;5.56;82.45;99859.42;106712;1257;75185;-87
2023/12/17 09:01:50;;;;;;;5.60;4.30;;;;;;;5.59;81.78;99871.42;106707;1260;72742;-88
2023/12/17 09:04:18;;;;;;;7.30;5.20;;;;;;;5.63;81.92;99873.30;105988;1257;61174;-87
2023/12/17 09:06:47;;;;;;;5.50;4.80;;;;;;;5.65;82.02;99886.56;105680;1257;61107;-87
2023/12/17 09:09:15;;;;;;;5.10;4.40;;;;;;;5.67;81.94;99880.48;105836;1258;72960;-92
2023/12/17 09:11:45;;;;;;;7.50;5.30;;;;;;;5.69;81.87;99877.42;105816;1257;73993;-91
2023/12/17 09:14:13;;;;;;;6.90;4.90;;;;;;;5.70;81.77;99881.98;105699;1257;71485;-91
2023/12/17 09:16:42;;;;;;;5.60;4.70;;;;;;;5.72;81.84;99880.00;105870;1260;61198;-91
2023/12/17 09:19:09;;;;;;;8.40;5.50;;;;;;;5.75;81.95;99878.86;106535;1259;61195;-90
2023/12/17 09:21:37;;;;;;;5.10;4.30;;;;;;;5.80;82.30;99886.20;105812;1258;72119;-91
2023/12/17 09:24:05;;;;;;;5.80;4.80;;;;;;;5.85;82.88;99881.80;105633;1257;71895;-91
2023/12/17 09:26:32;;;;;;;6.10;4.80;;;;;;;5.89;82.43;99885.98;105815;1257;73636;-91
2023/12/17 09:29:00;;;;;;;7.60;5.50;;;;;;;5.91;82.47;99880.04;106502;1257;61132;-92
2023/12/17 09:31:34;;;;;;;7.50;4.90;;;;;;;5.94;82.54;99881.20;106274;1257;61535;-91
2023/12/17 09:34:01;;;;;;;5.30;4.50;;;;;;;5.95;82.39;99881.17;106455;1257;72900;-90
2023/12/17 09:36:29;;;;;;;5.50;4.60;;;;;;;5.97;82.33;99873.52;105812;1262;75363;-90
